sensor_id;sensor_type;location;lat;lon;timestamp;temperature;humidity
17774;DHT22;9011;33.236;-97.118;2022-08-19T00:02:02;30.00;99.90
17774;DHT22;9011;33.236;-97.118;2022-08-19T00:04:33;29.80;99.90
17774;DHT22;9011;33.236;-97.118;2022-08-19T00:07:03;30.00;99.90
17774;DHT22;9011;33.236;-97.118;2022-08-19T00:09:32;29.70;99.90
17774;DHT22;9011;33.236;-97.118;2022-08-19T00:12:01;29.60;99.90
17774;DHT22;9011;33.236;-97.118;2022-08-19T00:14:30;29.70;99.90
17774;DHT22;9011;33.236;-97.118;2022-08-19T00:16:59;29.70;99.90
17774;DHT22;9011;33.236;-97.118;2022-08-19T00:19:29;29.70;99.90
17774;DHT22;9011;33.236;-97.118;2022-08-19T00:21:57;29.60;99.90
17774;DHT22;9011;33.236;-97.118;2022-08-19T00:24:26;29.50;99.90
17774;DHT22;9011;33.236;-97.118;2022-08-19T00:26:55;29.40;99.90
17774;DHT22;9011;33.236;-97.118;2022-08-19T00:29:24;29.30;99.90
17774;DHT22;9011;33.236;-97.118;2022-08-19T00:31:54;29.30;99.90
17774;DHT22;9011;33.236;-97.118;2022-08-19T00:34:25;29.30;99.90
17774;DHT22;9011;33.236;-97.118;2022-08-19T00:36:55;29.10;99.90
17774;DHT22;9011;33.236;-97.118;2022-08-19T00:39:24;29.00;99.90
17774;DHT22;9011;33.236;-97.118;2022-08-19T00:41:52;28.70;99.90
17774;DHT22;9011;33.236;-97.118;2022-08-19T00:44:23;28.60;99.90
17774;DHT22;9011;33.236;-97.118;2022-08-19T00:46:55;28.70;99.90
17774;DHT22;9011;33.236;-97.118;2022-08-19T00:49:27;28.60;99.90
17774;DHT22;9011;33.236;-97.118;2022-08-19T00:52:00;28.60;99.90
17774;DHT22;9011;33.236;-97.118;2022-08-19T00:54:29;28.60;99.90
17774;DHT22;9011;33.236;-97.118;2022-08-19T00:56:59;28.30;99.90
17774;DHT22;9011;33.236;-97.118;2022-08-19T00:59:29;28.30;99.90
17774;DHT22;9011;33.236;-97.118;2022-08-19T01:01:59;28.30;99.90
17774;DHT22;9011;33.236;-97.118;2022-08-19T01:04:28;28.10;99.90
17774;DHT22;9011;33.236;-97.118;2022-08-19T01:06:56;28.20;99.90
17774;DHT22;9011;33.236;-97.118;2022-08-19T01:09:25;28.20;99.90
17774;DHT22;9011;33.236;-97.118;2022-08-19T01:11:55;28.20;99.90
17774;DHT22;9011;33.236;-97.118;2022-08-19T01:14:27;28.00;99.90
17774;DHT22;9011;33.236;-97.118;2022-08-19T01:16:55;28.00;99.90
17774;DHT22;9011;33.236;-97.118;2022-08-19T01:19:27;27.90;99.90
17774;DHT22;9011;33.236;-97.118;2022-08-19T01:22:03;27.90;99.90
17774;DHT22;9011;33.236;-97.118;2022-08-19T01:24:35;28.00;99.90
17774;DHT22;9011;33.236;-97.118;2022-08-19T01:27:04;28.00;99.90
17774;DHT22;9011;33.236;-97.118;2022-08-19T01:29:33;28.00;99.90
17774;DHT22;9011;33.236;-97.118;2022-08-19T01:32:02;28.00;99.90
17774;DHT22;9011;33.236;-97.118;2022-08-19T01:34:30;27.90;99.90
17774;DHT22;9011;33.236;-97.118;2022-08-19T01:37:01;27.80;99.90
17774;DHT22;9011;33.236;-97.118;2022-08-19T01:39:36;27.70;99.90
17774;DHT22;9011;33.236;-97.118;2022-08-19T01:42:05;27.70;99.90
17774;DHT22;9011;33.236;-97.118;2022-08-19T01:44:37;27.70;99.90
17774;DHT22;9011;33.236;-97.118;2022-08-19T01:47:06;27.70;99.90
17774;DHT22;9011;33.236;-97.118;2022-08-19T01:49:36;27.60;99.90
17774;DHT22;9011;33.236;-97.118;2022-08-19T01:52:05;27.60;99.90
17774;DHT22;9011;33.236;-97.118;2022-08-19T01:54:35;27.60;99.90
17774;DHT22;9011;33.236;-97.118;2022-08-19T01:57:06;27.60;99.90
17774;DHT22;9011;33.236;-97.118;2022-08-19T01:59:36;27.60;99.90
17774;DHT22;9011;33.236;-97.118;2022-08-19T02:02:05;27.60;99.90
17774;DHT22;9011;33.236;-97.118;2022-08-19T02:04:35;27.60;99.90
17774;DHT22;9011;33.236;-97.118;2022-08-19T02:07:04;27.50;99.90
17774;DHT22;9011;33.236;-97.118;2022-08-19T02:09:35;27.40;99.90
17774;DHT22;9011;33.236;-97.118;2022-08-19T02:12:04;27.40;99.90
17774;DHT22;9011;33.236;-97.118;2022-08-19T02:14:34;27.30;99.90
17774;DHT22;9011;33.236;-97.118;2022-08-19T02:17:07;27.20;99.90
17774;DHT22;9011;33.236;-97.118;2022-08-19T02:19:36;27.00;99.90
17774;DHT22;9011;33.236;-97.118;2022-08-19T02:22:04;27.00;99.90
17774;DHT22;9011;33.236;-97.118;2022-08-19T02:24:33;27.00;99.90
17774;DHT22;9011;33.236;-97.118;2022-08-19T02:27:03;27.00;99.90
17774;DHT22;9011;33.236;-97.118;2022-08-19T02:29:32;26.80;99.90
17774;DHT22;9011;33.236;-97.118;2022-08-19T02:32:00;26.90;99.90
17774;DHT22;9011;33.236;-97.118;2022-08-19T02:34:29;26.70;99.90
17774;DHT22;9011;33.236;-97.118;2022-08-19T02:36:57;26.80;99.90
17774;DHT22;9011;33.236;-97.118;2022-08-19T02:39:28;26.70;99.90
17774;DHT22;9011;33.236;-97.118;2022-08-19T02:41:55;26.60;99.90
17774;DHT22;9011;33.236;-97.118;2022-08-19T02:44:27;26.70;99.90
17774;DHT22;9011;33.236;-97.118;2022-08-19T02:46:56;26.70;99.90
17774;DHT22;9011;33.236;-97.118;2022-08-19T02:49:25;26.70;99.90
17774;DHT22;9011;33.236;-97.118;2022-08-19T02:51:53;26.70;99.90
17774;DHT22;9011;33.236;-97.118;2022-08-19T02:54:21;26.70;99.90
17774;DHT22;9011;33.236;-97.118;2022-08-19T02:56:49;26.70;99.90
17774;DHT22;9011;33.236;-97.118;2022-08-19T02:59:18;26.70;99.90
17774;DHT22;9011;33.236;-97.118;2022-08-19T03:01:48;26.50;99.90
17774;DHT22;9011;33.236;-97.118;2022-08-19T03:04:19;26.60;99.90
17774;DHT22;9011;33.236;-97.118;2022-08-19T03:06:47;26.50;99.90
17774;DHT22;9011;33.236;-97.118;2022-08-19T03:09:17;26.60;99.90
17774;DHT22;9011;33.236;-97.118;2022-08-19T03:11:46;26.50;99.90
17774;DHT22;9011;33.236;-97.118;2022-08-19T03:14:15;26.50;99.90
17774;DHT22;9011;33.236;-97.118;2022-08-19T03:16:47;26.50;99.90
17774;DHT22;9011;33.236;-97.118;2022-08-19T03:19:17;26.50;99.90
17774;DHT22;9011;33.236;-97.118;2022-08-19T03:21:46;26.40;99.90
17774;DHT22;9011;33.236;-97.118;2022-08-19T03:24:15;26.40;99.90
17774;DHT22;9011;33.236;-97.118;2022-08-19T03:26:45;26.50;99.90
17774;DHT22;9011;33.236;-97.118;2022-08-19T03:29:14;26.40;99.90
17774;DHT22;9011;33.236;-97.118;2022-08-19T03:31:43;26.40;99.90
17774;DHT22;9011;33.236;-97.118;2022-08-19T03:34:16;26.40;99.90
17774;DHT22;9011;33.236;-97.118;2022-08-19T03:36:45;26.40;99.90
17774;DHT22;9011;33.236;-97.118;2022-08-19T03:39:14;26.50;99.90
17774;DHT22;9011;33.236;-97.118;2022-08-19T03:41:43;26.40;99.90
17774;DHT22;9011;33.236;-97.118;2022-08-19T03:44:13;26.40;99.90
17774;DHT22;9011;33.236;-97.118;2022-08-19T03:46:41;26.30;99.90
17774;DHT22;9011;33.236;-97.118;2022-08-19T03:49:09;26.30;99.90
17774;DHT22;9011;33.236;-97.118;2022-08-19T03:51:40;26.30;99.90
17774;DHT22;9011;33.236;-97.118;2022-08-19T03:54:11;26.30;99.90
17774;DHT22;9011;33.236;-97.118;2022-08-19T03:56:41;26.30;99.90
17774;DHT22;9011;33.236;-97.118;2022-08-19T03:59:12;26.30;99.90
17774;DHT22;9011;33.236;-97.118;2022-08-19T04:01:41;26.30;99.90
17774;DHT22;9011;33.236;-97.118;2022-08-19T04:04:09;26.30;99.90
17774;DHT22;9011;33.236;-97.118;2022-08-19T04:06:39;26.30;99.90
17774;DHT22;9011;33.236;-97.118;2022-08-19T04:09:10;26.30;99.90
17774;DHT22;9011;33.236;-97.118;2022-08-19T04:11:40;26.20;99.90
17774;DHT22;9011;33.236;-97.118;2022-08-19T04:14:09;26.20;99.90
17774;DHT22;9011;33.236;-97.118;2022-08-19T04:16:37;26.10;99.90
17774;DHT22;9011;33.236;-97.118;2022-08-19T04:19:06;26.00;99.90
17774;DHT22;9011;33.236;-97.118;2022-08-19T04:21:35;26.10;99.90
17774;DHT22;9011;33.236;-97.118;2022-08-19T04:24:06;26.00;99.90
17774;DHT22;9011;33.236;-97.118;2022-08-19T04:26:35;26.00;99.90
17774;DHT22;9011;33.236;-97.118;2022-08-19T04:29:09;26.10;99.90
17774;DHT22;9011;33.236;-97.118;2022-08-19T04:31:38;26.00;99.90
17774;DHT22;9011;33.236;-97.118;2022-08-19T04:34:09;25.90;99.90
17774;DHT22;9011;33.236;-97.118;2022-08-19T04:36:41;25.80;99.90
17774;DHT22;9011;33.236;-97.118;2022-08-19T04:39:14;25.80;99.90
17774;DHT22;9011;33.236;-97.118;2022-08-19T04:41:43;25.80;99.90
17774;DHT22;9011;33.236;-97.118;2022-08-19T04:44:30;25.80;99.90
17774;DHT22;9011;33.236;-97.118;2022-08-19T04:46:58;25.80;99.90
17774;DHT22;9011;33.236;-97.118;2022-08-19T04:49:27;25.80;99.90
17774;DHT22;9011;33.236;-97.118;2022-08-19T04:51:56;25.80;99.90
17774;DHT22;9011;33.236;-97.118;2022-08-19T04:54:26;25.70;99.90
17774;DHT22;9011;33.236;-97.118;2022-08-19T04:56:54;25.80;99.90
17774;DHT22;9011;33.236;-97.118;2022-08-19T04:59:22;25.70;99.90
17774;DHT22;9011;33.236;-97.118;2022-08-19T05:01:51;25.60;99.90
17774;DHT22;9011;33.236;-97.118;2022-08-19T05:04:20;25.60;99.90
17774;DHT22;9011;33.236;-97.118;2022-08-19T05:06:49;25.60;99.90
17774;DHT22;9011;33.236;-97.118;2022-08-19T05:09:19;25.60;99.90
17774;DHT22;9011;33.236;-97.118;2022-08-19T05:11:49;25.60;99.90
17774;DHT22;9011;33.236;-97.118;2022-08-19T05:14:19;25.60;99.90
17774;DHT22;9011;33.236;-97.118;2022-08-19T05:16:48;25.60;99.90
17774;DHT22;9011;33.236;-97.118;2022-08-19T05:19:16;25.60;99.90
17774;DHT22;9011;33.236;-97.118;2022-08-19T05:22:01;25.60;99.90
17774;DHT22;9011;33.236;-97.118;2022-08-19T05:24:46;25.50;99.90
17774;DHT22;9011;33.236;-97.118;2022-08-19T05:27:16;25.50;99.90
17774;DHT22;9011;33.236;-97.118;2022-08-19T05:29:45;25.50;99.90
17774;DHT22;9011;33.236;-97.118;2022-08-19T05:32:13;25.50;99.90
17774;DHT22;9011;33.236;-97.118;2022-08-19T05:34:41;25.40;99.90
17774;DHT22;9011;33.236;-97.118;2022-08-19T05:37:11;25.40;99.90
17774;DHT22;9011;33.236;-97.118;2022-08-19T05:39:39;25.40;99.90
17774;DHT22;9011;33.236;-97.118;2022-08-19T05:42:11;25.40;99.90
17774;DHT22;9011;33.236;-97.118;2022-08-19T05:44:42;25.40;99.90
17774;DHT22;9011;33.236;-97.118;2022-08-19T05:47:13;25.40;99.90
17774;DHT22;9011;33.236;-97.118;2022-08-19T05:49:42;25.30;99.90
17774;DHT22;9011;33.236;-97.118;2022-08-19T05:52:12;25.30;99.90
17774;DHT22;9011;33.236;-97.118;2022-08-19T05:54:41;25.30;99.90
17774;DHT22;9011;33.236;-97.118;2022-08-19T05:57:14;25.30;99.90
17774;DHT22;9011;33.236;-97.118;2022-08-19T05:59:44;25.30;99.90
17774;DHT22;9011;33.236;-97.118;2022-08-19T06:02:17;25.20;99.90
17774;DHT22;9011;33.236;-97.118;2022-08-19T06:04:46;25.30;99.90
17774;DHT22;9011;33.236;-97.118;2022-08-19T06:07:14;25.30;99.90
17774;DHT22;9011;33.236;-97.118;2022-08-19T06:09:43;25.30;99.90
17774;DHT22;9011;33.236;-97.118;2022-08-19T06:12:11;25.30;99.90
17774;DHT22;9011;33.236;-97.118;2022-08-19T06:14:39;25.40;99.90
17774;DHT22;9011;33.236;-97.118;2022-08-19T06:17:09;25.40;99.90
17774;DHT22;9011;33.236;-97.118;2022-08-19T06:19:39;25.40;99.90
17774;DHT22;9011;33.236;-97.118;2022-08-19T06:22:10;25.40;99.90
17774;DHT22;9011;33.236;-97.118;2022-08-19T06:24:39;25.20;99.90
17774;DHT22;9011;33.236;-97.118;2022-08-19T06:27:07;25.10;99.90
17774;DHT22;9011;33.236;-97.118;2022-08-19T06:29:36;25.10;99.90
17774;DHT22;9011;33.236;-97.118;2022-08-19T06:32:04;25.20;99.90
17774;DHT22;9011;33.236;-97.118;2022-08-19T06:34:35;25.10;99.90
17774;DHT22;9011;33.236;-97.118;2022-08-19T06:37:03;25.10;99.90
17774;DHT22;9011;33.236;-97.118;2022-08-19T06:39:37;25.10;99.90
17774;DHT22;9011;33.236;-97.118;2022-08-19T06:42:06;25.10;99.90
17774;DHT22;9011;33.236;-97.118;2022-08-19T06:44:39;25.10;99.90
17774;DHT22;9011;33.236;-97.118;2022-08-19T06:47:09;25.20;99.90
17774;DHT22;9011;33.236;-97.118;2022-08-19T06:49:39;25.10;99.90
17774;DHT22;9011;33.236;-97.118;2022-08-19T06:52:08;25.10;99.90
17774;DHT22;9011;33.236;-97.118;2022-08-19T06:54:38;25.10;99.90
17774;DHT22;9011;33.236;-97.118;2022-08-19T06:57:07;25.10;99.90
17774;DHT22;9011;33.236;-97.118;2022-08-19T06:59:41;25.10;99.90
17774;DHT22;9011;33.236;-97.118;2022-08-19T07:02:09;25.10;99.90
17774;DHT22;9011;33.236;-97.118;2022-08-19T07:04:39;25.10;99.90
17774;DHT22;9011;33.236;-97.118;2022-08-19T07:07:10;25.10;99.90
17774;DHT22;9011;33.236;-97.118;2022-08-19T07:09:40;25.10;99.90
17774;DHT22;9011;33.236;-97.118;2022-08-19T07:12:11;25.00;99.90
17774;DHT22;9011;33.236;-97.118;2022-08-19T07:14:43;25.00;99.90
17774;DHT22;9011;33.236;-97.118;2022-08-19T07:17:13;25.10;99.90
17774;DHT22;9011;33.236;-97.118;2022-08-19T07:19:43;25.10;99.90
17774;DHT22;9011;33.236;-97.118;2022-08-19T07:22:11;25.00;99.90
17774;DHT22;9011;33.236;-97.118;2022-08-19T07:24:41;25.00;99.90
17774;DHT22;9011;33.236;-97.118;2022-08-19T07:27:09;24.90;99.90
17774;DHT22;9011;33.236;-97.118;2022-08-19T07:29:38;24.90;99.90
17774;DHT22;9011;33.236;-97.118;2022-08-19T07:32:07;24.90;99.90
17774;DHT22;9011;33.236;-97.118;2022-08-19T07:34:37;24.90;99.90
17774;DHT22;9011;33.236;-97.118;2022-08-19T07:37:07;24.80;99.90
17774;DHT22;9011;33.236;-97.118;2022-08-19T07:39:37;24.80;99.90
17774;DHT22;9011;33.236;-97.118;2022-08-19T07:42:08;24.90;99.90
17774;DHT22;9011;33.236;-97.118;2022-08-19T07:44:37;24.90;99.90
17774;DHT22;9011;33.236;-97.118;2022-08-19T07:47:05;24.90;99.90
17774;DHT22;9011;33.236;-97.118;2022-08-19T07:49:34;24.90;99.90
17774;DHT22;9011;33.236;-97.118;2022-08-19T07:52:07;24.90;99.90
17774;DHT22;9011;33.236;-97.118;2022-08-19T07:54:38;24.90;99.90
17774;DHT22;9011;33.236;-97.118;2022-08-19T07:57:07;24.90;99.90
17774;DHT22;9011;33.236;-97.118;2022-08-19T07:59:36;25.00;99.90
17774;DHT22;9011;33.236;-97.118;2022-08-19T08:02:08;25.00;99.90
17774;DHT22;9011;33.236;-97.118;2022-08-19T08:04:36;24.90;99.90
17774;DHT22;9011;33.236;-97.118;2022-08-19T08:07:23;24.90;99.90
17774;DHT22;9011;33.236;-97.118;2022-08-19T08:10:08;24.90;99.90
17774;DHT22;9011;33.236;-97.118;2022-08-19T08:12:38;24.80;99.90
17774;DHT22;9011;33.236;-97.118;2022-08-19T08:15:10;24.70;99.90
17774;DHT22;9011;33.236;-97.118;2022-08-19T08:17:39;24.70;99.90
17774;DHT22;9011;33.236;-97.118;2022-08-19T08:20:09;24.70;99.90
17774;DHT22;9011;33.236;-97.118;2022-08-19T08:22:43;24.70;99.90
17774;DHT22;9011;33.236;-97.118;2022-08-19T08:25:29;24.70;99.90
17774;DHT22;9011;33.236;-97.118;2022-08-19T08:27:58;24.70;99.90
17774;DHT22;9011;33.236;-97.118;2022-08-19T08:30:28;24.70;99.90
17774;DHT22;9011;33.236;-97.118;2022-08-19T08:32:56;24.70;99.90
17774;DHT22;9011;33.236;-97.118;2022-08-19T08:35:25;24.70;99.90
17774;DHT22;9011;33.236;-97.118;2022-08-19T08:37:55;24.80;99.90
17774;DHT22;9011;33.236;-97.118;2022-08-19T08:40:28;24.60;99.90
17774;DHT22;9011;33.236;-97.118;2022-08-19T08:42:59;24.50;99.90
17774;DHT22;9011;33.236;-97.118;2022-08-19T08:45:31;24.60;99.90
17774;DHT22;9011;33.236;-97.118;2022-08-19T08:48:04;24.70;99.90
17774;DHT22;9011;33.236;-97.118;2022-08-19T08:50:41;24.70;99.90
17774;DHT22;9011;33.236;-97.118;2022-08-19T08:53:14;24.70;99.90
17774;DHT22;9011;33.236;-97.118;2022-08-19T08:55:44;24.70;99.90
17774;DHT22;9011;33.236;-97.118;2022-08-19T08:58:20;24.60;99.90
17774;DHT22;9011;33.236;-97.118;2022-08-19T09:00:52;24.50;99.90
17774;DHT22;9011;33.236;-97.118;2022-08-19T09:03:23;24.50;99.90
17774;DHT22;9011;33.236;-97.118;2022-08-19T09:05:58;24.50;99.90
17774;DHT22;9011;33.236;-97.118;2022-08-19T09:08:36;24.50;99.90
17774;DHT22;9011;33.236;-97.118;2022-08-19T09:11:09;24.50;99.90
17774;DHT22;9011;33.236;-97.118;2022-08-19T09:13:44;24.50;99.90
17774;DHT22;9011;33.236;-97.118;2022-08-19T09:16:18;24.60;99.90
17774;DHT22;9011;33.236;-97.118;2022-08-19T09:18:48;24.50;99.90
17774;DHT22;9011;33.236;-97.118;2022-08-19T09:21:19;24.40;99.90
17774;DHT22;9011;33.236;-97.118;2022-08-19T09:23:50;24.50;99.90
17774;DHT22;9011;33.236;-97.118;2022-08-19T09:26:20;24.50;99.90
17774;DHT22;9011;33.236;-97.118;2022-08-19T09:28:50;24.50;99.90
17774;DHT22;9011;33.236;-97.118;2022-08-19T09:31:22;24.50;99.90
17774;DHT22;9011;33.236;-97.118;2022-08-19T09:33:52;24.50;99.90
17774;DHT22;9011;33.236;-97.118;2022-08-19T09:36:24;24.50;99.90
17774;DHT22;9011;33.236;-97.118;2022-08-19T09:38:56;24.60;99.90
17774;DHT22;9011;33.236;-97.118;2022-08-19T09:41:26;24.70;99.90
17774;DHT22;9011;33.236;-97.118;2022-08-19T09:43:55;24.60;99.90
17774;DHT22;9011;33.236;-97.118;2022-08-19T09:46:26;24.50;99.90
17774;DHT22;9011;33.236;-97.118;2022-08-19T09:48:56;24.50;99.90
17774;DHT22;9011;33.236;-97.118;2022-08-19T09:51:26;24.60;99.90
17774;DHT22;9011;33.236;-97.118;2022-08-19T09:54:00;24.60;99.90
17774;DHT22;9011;33.236;-97.118;2022-08-19T09:56:29;24.50;99.90
17774;DHT22;9011;33.236;-97.118;2022-08-19T09:58:58;24.60;99.90
17774;DHT22;9011;33.236;-97.118;2022-08-19T10:01:29;24.50;99.90
17774;DHT22;9011;33.236;-97.118;2022-08-19T10:03:59;24.40;99.90
17774;DHT22;9011;33.236;-97.118;2022-08-19T10:06:28;24.50;99.90
17774;DHT22;9011;33.236;-97.118;2022-08-19T10:09:00;24.50;99.90
17774;DHT22;9011;33.236;-97.118;2022-08-19T10:11:30;24.40;99.90
17774;DHT22;9011;33.236;-97.118;2022-08-19T10:13:58;24.40;99.90
17774;DHT22;9011;33.236;-97.118;2022-08-19T10:16:27;24.30;99.90
17774;DHT22;9011;33.236;-97.118;2022-08-19T10:18:56;24.40;99.90
17774;DHT22;9011;33.236;-97.118;2022-08-19T10:21:27;24.30;99.90
17774;DHT22;9011;33.236;-97.118;2022-08-19T10:23:57;24.40;99.90
17774;DHT22;9011;33.236;-97.118;2022-08-19T10:26:30;24.40;99.90
17774;DHT22;9011;33.236;-97.118;2022-08-19T10:28:59;24.40;99.90
17774;DHT22;9011;33.236;-97.118;2022-08-19T10:31:32;24.40;99.90
17774;DHT22;9011;33.236;-97.118;2022-08-19T10:34:01;24.40;99.90
17774;DHT22;9011;33.236;-97.118;2022-08-19T10:36:31;24.50;99.90
17774;DHT22;9011;33.236;-97.118;2022-08-19T10:39:03;24.40;99.90
17774;DHT22;9011;33.236;-97.118;2022-08-19T10:41:35;24.40;99.90
17774;DHT22;9011;33.236;-97.118;2022-08-19T10:44:06;24.40;99.90
17774;DHT22;9011;33.236;-97.118;2022-08-19T10:46:38;24.30;99.90
17774;DHT22;9011;33.236;-97.118;2022-08-19T10:49:09;24.40;99.90
17774;DHT22;9011;33.236;-97.118;2022-08-19T10:51:38;24.40;99.90
17774;DHT22;9011;33.236;-97.118;2022-08-19T10:54:23;24.30;99.90
17774;DHT22;9011;33.236;-97.118;2022-08-19T10:57:16;24.30;99.90
17774;DHT22;9011;33.236;-97.118;2022-08-19T10:59:48;24.30;99.90
17774;DHT22;9011;33.236;-97.118;2022-08-19T11:02:16;24.30;99.90
17774;DHT22;9011;33.236;-97.118;2022-08-19T11:04:45;24.30;99.90
17774;DHT22;9011;33.236;-97.118;2022-08-19T11:07:15;24.20;99.90
17774;DHT22;9011;33.236;-97.118;2022-08-19T11:09:46;24.10;99.90
17774;DHT22;9011;33.236;-97.118;2022-08-19T11:12:17;24.10;99.90
17774;DHT22;9011;33.236;-97.118;2022-08-19T11:14:46;24.10;99.90
17774;DHT22;9011;33.236;-97.118;2022-08-19T11:17:16;24.10;99.90
17774;DHT22;9011;33.236;-97.118;2022-08-19T11:19:44;24.20;99.90
17774;DHT22;9011;33.236;-97.118;2022-08-19T11:22:14;24.20;99.90
17774;DHT22;9011;33.236;-97.118;2022-08-19T11:24:43;24.20;99.90
17774;DHT22;9011;33.236;-97.118;2022-08-19T11:27:11;24.20;99.90
17774;DHT22;9011;33.236;-97.118;2022-08-19T11:29:42;24.20;99.90
17774;DHT22;9011;33.236;-97.118;2022-08-19T11:32:10;24.10;99.90
17774;DHT22;9011;33.236;-97.118;2022-08-19T11:34:42;24.00;99.90
17774;DHT22;9011;33.236;-97.118;2022-08-19T11:37:10;24.00;99.90
17774;DHT22;9011;33.236;-97.118;2022-08-19T11:39:39;24.10;99.90
17774;DHT22;9011;33.236;-97.118;2022-08-19T11:42:07;24.10;99.90
17774;DHT22;9011;33.236;-97.118;2022-08-19T11:44:51;24.10;99.90
17774;DHT22;9011;33.236;-97.118;2022-08-19T11:47:19;24.10;99.90
17774;DHT22;9011;33.236;-97.118;2022-08-19T11:49:48;24.10;99.90
17774;DHT22;9011;33.236;-97.118;2022-08-19T11:52:16;24.10;99.90
17774;DHT22;9011;33.236;-97.118;2022-08-19T11:54:45;23.90;99.90
17774;DHT22;9011;33.236;-97.118;2022-08-19T11:57:14;24.00;99.90
17774;DHT22;9011;33.236;-97.118;2022-08-19T11:59:48;23.80;99.90
17774;DHT22;9011;33.236;-97.118;2022-08-19T12:02:19;23.90;99.90
17774;DHT22;9011;33.236;-97.118;2022-08-19T12:04:52;23.80;99.90
17774;DHT22;9011;33.236;-97.118;2022-08-19T12:07:29;23.80;99.90
17774;DHT22;9011;33.236;-97.118;2022-08-19T12:10:03;23.90;99.90
17774;DHT22;9011;33.236;-97.118;2022-08-19T12:12:31;23.80;99.90
17774;DHT22;9011;33.236;-97.118;2022-08-19T12:15:03;23.80;99.90
17774;DHT22;9011;33.236;-97.118;2022-08-19T12:17:33;23.80;99.90
17774;DHT22;9011;33.236;-97.118;2022-08-19T12:20:01;23.90;99.90
17774;DHT22;9011;33.236;-97.118;2022-08-19T12:22:29;24.00;99.90
17774;DHT22;9011;33.236;-97.118;2022-08-19T12:24:58;23.90;99.90
17774;DHT22;9011;33.236;-97.118;2022-08-19T12:27:27;23.90;99.90
17774;DHT22;9011;33.236;-97.118;2022-08-19T12:29:55;23.90;99.90
17774;DHT22;9011;33.236;-97.118;2022-08-19T12:32:23;23.80;99.90
17774;DHT22;9011;33.236;-97.118;2022-08-19T12:34:54;23.70;99.90
17774;DHT22;9011;33.236;-97.118;2022-08-19T12:37:23;23.80;99.90
17774;DHT22;9011;33.236;-97.118;2022-08-19T12:39:51;23.80;99.90
17774;DHT22;9011;33.236;-97.118;2022-08-19T12:42:19;23.80;99.90
17774;DHT22;9011;33.236;-97.118;2022-08-19T12:44:48;23.80;99.90
17774;DHT22;9011;33.236;-97.118;2022-08-19T12:47:18;23.80;99.90
17774;DHT22;9011;33.236;-97.118;2022-08-19T12:49:47;23.80;99.90
17774;DHT22;9011;33.236;-97.118;2022-08-19T12:52:17;23.90;99.90
17774;DHT22;9011;33.236;-97.118;2022-08-19T12:54:47;24.00;99.90
17774;DHT22;9011;33.236;-97.118;2022-08-19T12:57:15;24.10;99.90
17774;DHT22;9011;33.236;-97.118;2022-08-19T12:59:44;24.10;99.90
17774;DHT22;9011;33.236;-97.118;2022-08-19T13:02:12;24.10;99.90
17774;DHT22;9011;33.236;-97.118;2022-08-19T13:04:40;24.10;99.90
17774;DHT22;9011;33.236;-97.118;2022-08-19T13:07:08;24.00;99.90
17774;DHT22;9011;33.236;-97.118;2022-08-19T13:09:38;24.00;99.90
17774;DHT22;9011;33.236;-97.118;2022-08-19T13:12:09;24.10;99.90
17774;DHT22;9011;33.236;-97.118;2022-08-19T13:14:39;24.30;99.90
17774;DHT22;9011;33.236;-97.118;2022-08-19T13:17:08;24.40;99.90
17774;DHT22;9011;33.236;-97.118;2022-08-19T13:19:38;24.40;99.90
17774;DHT22;9011;33.236;-97.118;2022-08-19T13:22:06;24.50;99.90
17774;DHT22;9011;33.236;-97.118;2022-08-19T13:24:34;24.50;99.90
17774;DHT22;9011;33.236;-97.118;2022-08-19T13:27:05;24.30;99.90
17774;DHT22;9011;33.236;-97.118;2022-08-19T13:29:33;24.40;99.90
17774;DHT22;9011;33.236;-97.118;2022-08-19T13:32:18;24.50;99.90
17774;DHT22;9011;33.236;-97.118;2022-08-19T13:35:04;24.40;99.90
17774;DHT22;9011;33.236;-97.118;2022-08-19T13:37:32;24.50;99.90
17774;DHT22;9011;33.236;-97.118;2022-08-19T13:40:11;24.50;99.90
17774;DHT22;9011;33.236;-97.118;2022-08-19T13:42:44;24.70;99.90
17774;DHT22;9011;33.236;-97.118;2022-08-19T13:45:14;24.60;99.90
17774;DHT22;9011;33.236;-97.118;2022-08-19T13:47:45;24.50;99.90
17774;DHT22;9011;33.236;-97.118;2022-08-19T13:50:16;24.60;99.90
17774;DHT22;9011;33.236;-97.118;2022-08-19T13:52:45;24.60;99.90
17774;DHT22;9011;33.236;-97.118;2022-08-19T13:55:15;24.60;99.90
17774;DHT22;9011;33.236;-97.118;2022-08-19T13:57:45;24.60;99.90
17774;DHT22;9011;33.236;-97.118;2022-08-19T14:00:16;24.70;99.90
17774;DHT22;9011;33.236;-97.118;2022-08-19T14:02:45;24.90;99.90
17774;DHT22;9011;33.236;-97.118;2022-08-19T14:05:15;24.90;99.90
17774;DHT22;9011;33.236;-97.118;2022-08-19T14:07:43;24.90;99.90
17774;DHT22;9011;33.236;-97.118;2022-08-19T14:10:13;25.00;99.90
17774;DHT22;9011;33.236;-97.118;2022-08-19T14:12:41;25.00;99.90
17774;DHT22;9011;33.236;-97.118;2022-08-19T14:15:12;25.10;99.90
17774;DHT22;9011;33.236;-97.118;2022-08-19T14:17:42;25.10;99.90
17774;DHT22;9011;33.236;-97.118;2022-08-19T14:20:12;25.30;99.90
17774;DHT22;9011;33.236;-97.118;2022-08-19T14:22:42;25.50;99.90
17774;DHT22;9011;33.236;-97.118;2022-08-19T14:25:13;25.30;99.90
17774;DHT22;9011;33.236;-97.118;2022-08-19T14:27:42;25.40;99.90
17774;DHT22;9011;33.236;-97.118;2022-08-19T14:30:15;25.50;99.90
17774;DHT22;9011;33.236;-97.118;2022-08-19T14:32:44;25.40;99.90
17774;DHT22;9011;33.236;-97.118;2022-08-19T14:35:13;25.30;99.90
17774;DHT22;9011;33.236;-97.118;2022-08-19T14:37:43;25.30;99.90
17774;DHT22;9011;33.236;-97.118;2022-08-19T14:40:13;25.50;99.90
17774;DHT22;9011;33.236;-97.118;2022-08-19T14:42:42;25.50;99.90
17774;DHT22;9011;33.236;-97.118;2022-08-19T14:45:12;25.50;99.90
17774;DHT22;9011;33.236;-97.118;2022-08-19T14:47:40;25.50;99.90
17774;DHT22;9011;33.236;-97.118;2022-08-19T14:50:10;25.30;99.90
17774;DHT22;9011;33.236;-97.118;2022-08-19T14:52:38;25.30;99.90
17774;DHT22;9011;33.236;-97.118;2022-08-19T14:55:07;25.30;99.90
17774;DHT22;9011;33.236;-97.118;2022-08-19T14:57:36;25.50;99.90
17774;DHT22;9011;33.236;-97.118;2022-08-19T15:00:06;25.50;99.90
17774;DHT22;9011;33.236;-97.118;2022-08-19T15:02:39;25.30;99.90
17774;DHT22;9011;33.236;-97.118;2022-08-19T15:05:08;25.40;99.90
17774;DHT22;9011;33.236;-97.118;2022-08-19T15:07:36;25.80;99.90
17774;DHT22;9011;33.236;-97.118;2022-08-19T15:10:07;26.00;99.90
17774;DHT22;9011;33.236;-97.118;2022-08-19T15:12:36;26.00;99.90
17774;DHT22;9011;33.236;-97.118;2022-08-19T15:15:07;25.90;99.90
17774;DHT22;9011;33.236;-97.118;2022-08-19T15:17:40;25.90;99.90
17774;DHT22;9011;33.236;-97.118;2022-08-19T15:20:10;26.20;99.90
17774;DHT22;9011;33.236;-97.118;2022-08-19T15:22:39;26.40;99.90
17774;DHT22;9011;33.236;-97.118;2022-08-19T15:25:10;26.50;99.90
17774;DHT22;9011;33.236;-97.118;2022-08-19T15:27:38;26.60;99.90
17774;DHT22;9011;33.236;-97.118;2022-08-19T15:30:07;26.50;99.90
17774;DHT22;9011;33.236;-97.118;2022-08-19T15:32:36;26.60;99.90
17774;DHT22;9011;33.236;-97.118;2022-08-19T15:35:07;26.70;99.90